createdAt,value
2022-09-12T04:15:28.034Z,16.25
2022-09-12T04:17:57.184Z,15.87
2022-09-12T04:20:29.611Z,15.80
2022-09-12T04:23:00.772Z,15.36
2022-09-12T04:25:31.852Z,15.64
2022-09-12T04:28:01.084Z,15.65
2022-09-12T04:30:32.626Z,15.37
2022-09-12T04:33:08.147Z,15.35
2022-09-12T04:35:38.159Z,15.61
2022-09-12T04:38:07.351Z,15.80
2022-09-12T04:40:36.948Z,16.07
2022-09-12T04:43:10.136Z,16.03
2022-09-12T04:45:43.439Z,16.49
2022-09-12T04:48:13.170Z,16.54
2022-09-12T04:50:42.288Z,17.03
2022-09-12T04:53:11.537Z,17.12
2022-09-12T04:55:40.697Z,17.06
2022-09-12T04:58:11.889Z,17.18
2022-09-12T05:00:42.502Z,17.25
2022-09-12T05:03:29.086Z,17.42
2022-09-12T05:05:58.435Z,17.71
2022-09-12T05:08:27.855Z,17.43
2022-09-12T05:10:57.683Z,17.51
2022-09-12T05:13:34.469Z,17.52
2022-09-12T05:16:13.973Z,16.55
2022-09-12T05:18:45.423Z,17.24
2022-09-12T05:21:17.970Z,17.34
2022-09-12T05:23:48.246Z,17.37
2022-09-12T05:26:19.595Z,17.56
2022-09-12T05:28:50.181Z,17.72
2022-09-12T05:31:43.971Z,17.16
2022-09-12T05:34:13.485Z,17.39
2022-09-12T05:36:42.765Z,17.53
2022-09-12T05:39:18.253Z,17.59
2022-09-12T05:41:50.118Z,17.74
2022-09-12T05:44:19.298Z,18.12
2022-09-12T05:46:52.016Z,18.06
2022-09-12T05:49:28.058Z,18.15
2022-09-12T05:51:57.283Z,17.99
2022-09-12T05:54:31.607Z,18.07
2022-09-12T05:57:01.096Z,18.02
2022-09-12T05:59:30.522Z,17.97
2022-09-12T06:02:05.829Z,17.67
2022-09-12T06:04:35.006Z,17.37
2022-09-12T06:07:04.245Z,17.20
2022-09-12T06:09:35.542Z,17.23
2022-09-12T06:12:05.898Z,17.21
2022-09-12T06:14:34.992Z,17.22
2022-09-12T06:17:06.258Z,17.27
2022-09-12T06:19:35.303Z,17.32
2022-09-12T06:22:05.590Z,17.39
2022-09-12T06:24:34.998Z,17.38
2022-09-12T06:27:04.098Z,17.58
2022-09-12T06:29:37.032Z,17.68
2022-09-12T06:32:12.285Z,17.62
2022-09-12T06:34:43.488Z,18.21
2022-09-12T06:37:15.127Z,18.11
2022-09-12T06:39:54.473Z,17.63
2022-09-12T06:42:27.921Z,17.64
2022-09-12T06:44:57.453Z,18.24
2022-09-12T06:47:28.818Z,18.40
2022-09-12T06:49:58.085Z,18.16
2022-09-12T06:52:30.268Z,18.26
2022-09-12T06:54:59.780Z,17.39
2022-09-12T06:57:48.643Z,17.35
2022-09-12T07:00:18.466Z,17.32
2022-09-12T07:03:04.611Z,17.45
2022-09-12T07:06:19.773Z,16.12
2022-09-12T07:08:55.128Z,16.33
2022-09-12T07:11:40.392Z,15.53
2022-09-12T07:17:17.850Z,16.41
2022-09-12T07:19:48.817Z,16.35
2022-09-12T07:22:22.881Z,16.55
2022-09-12T07:24:56.168Z,15.28
2022-09-12T07:27:27.006Z,15.05
2022-09-12T07:30:15.666Z,14.13
2022-09-12T07:32:44.999Z,13.08
2022-09-12T07:35:18.537Z,12.82
2022-09-12T07:37:47.704Z,12.53
2022-09-12T07:40:17.040Z,12.06
2022-09-12T07:42:48.241Z,11.58
2022-09-12T07:45:17.734Z,11.41
2022-09-12T07:47:46.837Z,11.19
2022-09-12T07:50:17.618Z,11.31
2022-09-12T07:52:46.700Z,11.30
2022-09-12T07:55:15.898Z,11.18
2022-09-12T07:57:45.322Z,11.21
2022-09-12T08:00:15.878Z,10.99
2022-09-12T08:02:45.186Z,11.14
2022-09-12T08:05:14.362Z,10.71
2022-09-12T08:07:44.981Z,11.08
2022-09-12T08:10:14.189Z,11.08
2022-09-12T08:12:44.501Z,11.10
2022-09-12T08:15:13.837Z,10.63
2022-09-12T08:17:43.488Z,11.18
2022-09-12T08:20:12.782Z,11.29
2022-09-12T08:22:42.055Z,11.19
2022-09-12T08:25:14.334Z,11.26
2022-09-12T08:27:46.226Z,11.84
